Time;durP1;ratioP1;P1;durP2;ratioP2;P2;SDS_P1;SDS_P2;PMS_P1;PMS_P2;Temp;Humidity;BMP_temperature;BMP_pressure;BME280_temperature;BME280_humidity;BME280_pressure;Samples;Min_cycle;Max_cycle;Signal;HPM_P1;HPM_P2
2021/03/14 00:00:49;;;;;;;4.32;2.25;;;;;;;5.21;69.00;97692.06;5092066;28;20055;-64
2021/03/14 00:03:18;;;;;;;2.72;1.75;;;;;;;5.24;69.06;97693.53;5091581;28;20062;-64
2021/03/14 00:05:47;;;;;;;5.15;1.67;;;;;;;5.36;69.06;97696.47;5091545;28;20109;-63
2021/03/14 00:08:15;;;;;;;4.18;1.90;;;;;;;5.40;68.85;97700.34;5091739;28;20452;-64
2021/03/14 00:10:45;;;;;;;8.73;2.30;;;;;;;5.35;68.71;97697.47;5091703;28;20482;-64
2021/03/14 00:13:12;;;;;;;3.80;2.13;;;;;;;5.37;68.91;97703.31;5091862;28;20044;-65
2021/03/14 00:15:39;;;;;;;6.13;3.45;;;;;;;5.37;69.03;97708.56;5091285;28;20044;-65
2021/03/14 00:18:09;;;;;;;5.88;3.80;;;;;;;5.41;68.81;97708.00;5091491;28;20041;-65
2021/03/14 00:20:37;;;;;;;5.80;3.53;;;;;;;5.34;68.83;97719.41;5100235;28;20131;-65
2021/03/14 00:23:05;;;;;;;4.07;2.60;;;;;;;5.30;69.08;97726.81;5101596;28;20067;-65
2021/03/14 00:25:33;;;;;;;4.97;2.10;;;;;;;5.21;69.72;97741.84;5100060;28;20398;-64
2021/03/14 00:27:59;;;;;;;6.07;1.67;;;;;;;4.96;70.10;97745.78;5091388;28;20055;-66
2021/03/14 00:30:28;;;;;;;4.97;1.83;;;;;;;4.46;71.17;97750.75;5091354;28;20071;-65
2021/03/14 00:32:56;;;;;;;5.43;1.52;;;;;;;4.34;72.78;97754.00;5090193;28;20044;-65
2021/03/14 00:35:24;;;;;;;3.20;1.25;;;;;;;4.18;73.48;97757.56;5091252;28;20471;-65
2021/03/14 00:37:52;;;;;;;3.38;1.10;;;;;;;4.06;73.80;97754.56;5091593;28;20065;-65
2021/03/14 00:40:22;;;;;;;4.70;1.27;;;;;;;3.96;74.21;97767.91;5094989;28;20614;-66
2021/03/14 00:42:49;;;;;;;3.30;0.93;;;;;;;4.00;74.64;97773.59;5095104;28;20421;-66
2021/03/14 00:45:29;;;;;;;3.28;1.00;;;;;;;4.00;74.20;97778.81;5095061;28;20048;-65
2021/03/14 00:47:56;;;;;;;6.25;0.90;;;;;;;3.92;73.88;97782.31;5093577;28;20070;-65
2021/03/14 00:50:25;;;;;;;4.45;1.13;;;;;;;4.00;74.07;97789.28;5094923;28;20039;-66
2021/03/14 00:52:52;;;;;;;3.78;1.30;;;;;;;4.03;73.86;97790.72;5093618;28;20071;-65
2021/03/14 00:55:20;;;;;;;1.58;1.20;;;;;;;3.98;73.94;97786.84;5093576;28;20052;-66
2021/03/14 00:57:47;;;;;;;3.38;1.55;;;;;;;3.97;73.66;97802.72;5094676;28;20058;-65
2021/03/14 01:00:16;;;;;;;4.32;1.65;;;;;;;3.96;73.66;97791.44;5093491;28;20498;-65
2021/03/14 01:02:44;;;;;;;3.58;1.20;;;;;;;3.99;73.66;97800.72;5093504;28;20060;-65
2021/03/14 01:05:13;;;;;;;2.50;1.23;;;;;;;3.91;73.71;97806.81;5093340;28;20040;-65
2021/03/14 01:07:42;;;;;;;2.35;1.10;;;;;;;3.92;73.76;97805.03;5094393;28;20133;-65
2021/03/14 01:10:10;;;;;;;1.70;1.10;;;;;;;3.91;73.56;97804.19;5093394;28;20043;-65
2021/03/14 01:12:38;;;;;;;4.85;1.40;;;;;;;3.92;73.61;97807.66;5093441;28;20068;-65
2021/03/14 01:15:14;;;;;;;4.75;1.27;;;;;;;3.86;73.43;97795.25;5093322;28;20044;-65
2021/03/14 01:17:46;;;;;;;3.22;1.25;;;;;;;3.83;73.67;97806.88;5094552;28;20056;-65
2021/03/14 01:20:16;;;;;;;4.18;1.40;;;;;;;3.80;73.62;97804.63;5094367;28;20093;-65
2021/03/14 01:22:44;;;;;;;3.85;1.63;;;;;;;3.75;73.69;97806.94;5093021;28;20052;-65
2021/03/14 01:25:14;;;;;;;2.72;1.20;;;;;;;3.73;73.55;97821.97;5092892;28;20158;-65
2021/03/14 01:27:45;;;;;;;1.95;1.20;;;;;;;3.72;73.55;97821.16;5094321;28;20055;-65
2021/03/14 01:30:14;;;;;;;5.65;1.42;;;;;;;3.75;73.49;97820.00;5093048;28;20047;-65
2021/03/14 01:32:41;;;;;;;2.65;1.48;;;;;;;3.79;73.32;97820.47;5094356;28;20397;-66
2021/03/14 01:35:10;;;;;;;3.88;1.00;;;;;;;3.81;73.18;97835.00;5093973;28;20524;-65
2021/03/14 01:37:38;;;;;;;8.48;1.45;;;;;;;3.79;73.04;97833.53;5094010;28;20116;-65
2021/03/14 01:40:07;;;;;;;1.70;1.23;;;;;;;3.78;73.00;97835.34;5094264;28;20043;-65
2021/03/14 01:42:35;;;;;;;4.63;1.27;;;;;;;3.80;73.14;97836.00;5094074;28;20028;-65
2021/03/14 01:45:03;;;;;;;4.45;1.45;;;;;;;3.78;73.01;97837.97;5093830;28;20044;-65
2021/03/14 01:47:34;;;;;;;3.28;1.20;;;;;;;3.71;73.14;97839.63;5093721;28;20113;-65
2021/03/14 01:50:05;;;;;;;2.63;1.70;;;;;;;3.71;73.13;97853.53;5092242;28;20147;-65
2021/03/14 01:52:32;;;;;;;7.68;1.90;;;;;;;3.63;73.14;97852.75;5093767;28;20359;-66
2021/03/14 01:54:59;;;;;;;5.63;1.73;;;;;;;3.59;73.49;97860.13;5093578;28;20048;-65
2021/03/14 01:57:27;;;;;;;4.43;1.75;;;;;;;3.55;73.78;97858.84;5093542;28;20118;-64
2021/03/14 01:59:53;;;;;;;5.57;1.70;;;;;;;3.63;73.63;97864.03;5092243;28;20044;-65
2021/03/14 02:02:20;;;;;;;5.55;1.67;;;;;;;3.59;73.57;97852.28;5092293;28;20048;-64
2021/03/14 02:04:48;;;;;;;7.82;1.90;;;;;;;3.56;73.59;97863.09;5093348;28;20127;-65
2021/03/14 02:07:15;;;;;;;3.58;1.80;;;;;;;3.53;73.66;97871.25;5093394;28;20043;-65
2021/03/14 02:09:42;;;;;;;5.05;2.45;;;;;;;3.52;73.90;97874.06;5093272;28;20035;-65
2021/03/14 02:12:13;;;;;;;7.25;2.38;;;;;;;3.53;73.76;97875.66;5093557;28;20563;-65
2021/03/14 02:14:42;;;;;;;7.35;2.30;;;;;;;3.63;73.62;97877.09;5093274;28;20050;-65
2021/03/14 02:17:14;;;;;;;4.05;2.78;;;;;;;3.55;73.43;97877.13;5092143;28;20090;-65
2021/03/14 02:19:51;;;;;;;5.47;2.53;;;;;;;3.54;73.42;97880.72;5091877;28;20044;-65
2021/03/14 02:22:20;;;;;;;3.25;2.95;;;;;;;3.51;73.50;97875.84;5093501;28;20638;-65
2021/03/14 02:24:52;;;;;;;3.88;2.80;;;;;;;3.51;73.40;97881.06;5093000;28;20043;-65
2021/03/14 02:27:21;;;;;;;9.95;3.88;;;;;;;3.50;73.40;97894.28;5093026;28;20052;-64
2021/03/14 02:29:48;;;;;;;5.53;3.33;;;;;;;3.45;73.44;97889.59;5092938;28;20039;-66
2021/03/14 02:32:18;;;;;;;6.57;3.20;;;;;;;3.50;73.49;97889.06;5092931;28;20042;-65
2021/03/14 02:34:48;;;;;;;12.80;3.60;;;;;;;3.46;73.56;97894.63;5092586;28;20036;-65
2021/03/14 02:37:16;;;;;;;8.15;3.80;;;;;;;3.51;73.41;97894.16;5092876;28;20067;-66
2021/03/14 02:39:43;;;;;;;7.78;3.78;;;;;;;3.54;73.32;97896.41;5092625;28;20044;-65
2021/03/14 02:42:11;;;;;;;5.78;3.92;;;;;;;3.53;73.46;97896.56;5091475;28;20081;-65
2021/03/14 02:44:43;;;;;;;6.70;4.03;;;;;;;3.61;73.32;97891.31;5091341;28;20074;-65
2021/03/14 02:47:10;;;;;;;8.27;4.70;;;;;;;3.66;73.39;97891.59;5091452;28;20055;-65
2021/03/14 02:49:53;;;;;;;8.63;5.70;;;;;;;3.65;73.35;97909.09;5092647;28;20054;-65
2021/03/14 02:52:22;;;;;;;7.22;5.55;;;;;;;3.61;73.37;97896.53;5092816;28;20047;-66
2021/03/14 02:54:50;;;;;;;7.43;5.57;;;;;;;3.64;73.68;97890.97;5092647;28;20733;-66
2021/03/14 02:57:20;;;;;;;9.30;6.20;;;;;;;3.65;73.66;97893.41;5092673;28;20115;-65
2021/03/14 02:59:50;;;;;;;7.47;5.97;;;;;;;3.68;73.88;97900.91;5092528;28;20043;-65
2021/03/14 03:02:18;;;;;;;9.95;6.13;;;;;;;3.65;73.99;97908.28;5090744;28;20047;-65
2021/03/14 03:04:48;;;;;;;7.70;6.22;;;;;;;3.61;74.00;97913.03;5092354;28;20113;-66
2021/03/14 03:07:17;;;;;;;8.07;6.05;;;;;;;3.57;74.23;97927.41;5092626;28;20494;-65
2021/03/14 03:09:46;;;;;;;7.13;5.88;;;;;;;3.55;74.36;97923.34;5092258;28;20040;-65
2021/03/14 03:12:15;;;;;;;9.25;6.60;;;;;;;3.53;74.60;97930.53;5092396;28;20039;-65
2021/03/14 03:14:44;;;;;;;9.75;7.90;;;;;;;3.50;74.75;97941.34;5092188;28;20571;-65
2021/03/14 03:17:12;;;;;;;11.18;7.57;;;;;;;3.51;74.77;97941.19;5092355;28;20050;-65
2021/03/14 03:19:41;;;;;;;14.18;8.18;;;;;;;3.58;74.79;97939.50;5091964;28;20044;-65
2021/03/14 03:22:08;;;;;;;11.25;8.20;;;;;;;3.61;74.65;97936.56;5092248;28;20044;-65
2021/03/14 03:24:35;;;;;;;10.38;7.75;;;;;;;3.65;74.56;97937.84;5090802;28;20521;-65
2021/03/14 03:27:02;;;;;;;10.77;7.28;;;;;;;3.59;74.89;97940.31;5092164;28;20555;-66
2021/03/14 03:29:29;;;;;;;13.25;8.63;;;;;;;3.55;75.06;97952.09;5091955;28;20043;-66
2021/03/14 03:31:56;;;;;;;10.70;8.00;;;;;;;3.60;75.23;97958.44;5092172;28;20136;-66
2021/03/14 03:34:24;;;;;;;11.10;7.43;;;;;;;3.59;75.30;97964.66;5091834;28;20044;-65
2021/03/14 03:36:50;;;;;;;10.32;7.35;;;;;;;3.64;75.10;97972.81;5092090;28;20700;-66
2021/03/14 03:39:17;;;;;;;9.05;6.53;;;;;;;3.60;75.31;97965.47;5091712;28;20040;-65
2021/03/14 03:41:49;;;;;;;8.63;6.90;;;;;;;3.56;75.41;97977.25;5100031;28;20490;-65
2021/03/14 03:44:18;;;;;;;9.10;6.40;;;;;;;3.64;75.54;97987.69;5108483;28;20081;-65
2021/03/14 03:46:46;;;;;;;12.82;6.97;;;;;;;3.61;75.66;97993.25;5101967;28;20652;-66
2021/03/14 03:49:15;;;;;;;5.47;4.75;;;;;;;3.65;75.47;97997.97;5092901;28;20040;-66
2021/03/14 03:51:43;;;;;;;6.40;5.28;;;;;;;3.58;75.64;97998.78;5092840;28;20036;-66
2021/03/14 03:54:11;;;;;;;7.57;5.53;;;;;;;3.52;75.35;97999.47;5091027;28;20059;-66
2021/03/14 03:56:40;;;;;;;6.65;4.95;;;;;;;3.53;75.68;97999.31;5092046;28;20048;-66
2021/03/14 03:59:07;;;;;;;8.30;4.40;;;;;;;3.52;75.63;98004.72;5091659;28;20051;-66
2021/03/14 04:01:35;;;;;;;7.28;3.78;;;;;;;3.60;75.40;98017.75;5092045;28;20048;-66
2021/03/14 04:04:05;;;;;;;5.45;3.72;;;;;;;3.58;75.25;98023.13;5090548;28;20040;-66
2021/03/14 04:06:32;;;;;;;5.47;3.67;;;;;;;3.53;75.25;98028.03;5091683;28;20036;-66
2021/03/14 04:09:01;;;;;;;8.00;4.07;;;;;;;3.52;75.19;98036.06;5091580;28;20036;-66
2021/03/14 04:11:30;;;;;;;4.43;3.20;;;;;;;3.50;75.08;98033.59;5091761;28;20033;-66
2021/03/14 04:13:57;;;;;;;6.22;3.13;;;;;;;3.55;74.99;98051.38;5095489;28;20097;-66
2021/03/14 04:16:25;;;;;;;4.80;2.78;;;;;;;3.54;74.85;98060.22;5095652;28;20409;-66
2021/03/14 04:18:52;;;;;;;5.57;2.78;;;;;;;3.56;74.80;98058.28;5095422;28;20044;-65
2021/03/14 04:21:21;;;;;;;4.65;2.28;;;;;;;3.49;74.62;98065.94;5094459;28;20456;-66
2021/03/14 04:23:52;;;;;;;5.55;1.85;;;;;;;3.39;74.53;98076.59;5095654;28;20166;-66
2021/03/14 04:26:22;;;;;;;3.78;1.80;;;;;;;3.34;74.80;98078.03;5095643;28;20048;-68
2021/03/14 04:28:52;;;;;;;4.18;1.85;;;;;;;3.27;74.90;98087.53;5095780;28;20036;-65
2021/03/14 04:31:20;;;;;;;6.15;1.63;;;;;;;3.19;74.92;98089.16;5095920;28;20050;-66
2021/03/14 04:33:50;;;;;;;5.28;1.85;;;;;;;3.24;75.04;98106.94;5095664;28;20119;-65
2021/03/14 04:36:17;;;;;;;3.03;1.60;;;;;;;3.20;75.21;98106.44;5095589;28;20076;-68
2021/03/14 04:38:46;;;;;;;5.45;2.05;;;;;;;3.25;75.27;98105.16;5094502;28;20094;-65
2021/03/14 04:41:14;;;;;;;4.13;1.88;;;;;;;3.25;75.20;98110.38;5095954;28;20044;-65
2021/03/14 04:43:42;;;;;;;5.47;1.75;;;;;;;3.25;75.33;98121.63;5096076;28;20387;-65
2021/03/14 04:46:12;;;;;;;4.13;1.50;;;;;;;3.26;75.34;98123.25;5095389;28;20043;-65
2021/03/14 04:48:39;;;;;;;2.75;1.73;;;;;;;3.27;75.24;98118.88;5095185;28;20055;-65
2021/03/14 04:51:10;;;;;;;5.22;1.88;;;;;;;3.27;75.30;98124.91;5095307;28;20044;-66
2021/03/14 04:53:37;;;;;;;4.05;1.50;;;;;;;3.30;75.26;98128.97;5095414;28;20051;-65
2021/03/14 04:56:05;;;;;;;2.65;1.30;;;;;;;3.27;75.37;98121.50;5095408;28;20044;-65
2021/03/14 04:58:33;;;;;;;6.57;1.90;;;;;;;3.29;75.22;98133.41;5096438;28;20494;-65
2021/03/14 05:01:02;;;;;;;3.25;1.45;;;;;;;3.35;75.11;98134.56;5098873;28;20032;-65
2021/03/14 05:03:31;;;;;;;2.45;1.48;;;;;;;3.32;75.06;98140.09;5097274;28;20150;-65
2021/03/14 05:05:58;;;;;;;4.35;1.50;;;;;;;3.31;75.22;98149.75;5094681;28;20050;-64
2021/03/14 05:08:27;;;;;;;2.78;1.60;;;;;;;3.31;75.36;98138.47;5094805;28;20036;-65
2021/03/14 05:10:54;;;;;;;2.22;1.35;;;;;;;3.33;75.12;98154.78;5094966;28;20043;-65
2021/03/14 05:13:21;;;;;;;4.82;1.67;;;;;;;3.33;75.06;98154.78;5094647;28;20040;-65
2021/03/14 05:15:52;;;;;;;4.50;1.98;;;;;;;3.27;75.02;98153.66;5094600;28;20043;-65
2021/03/14 05:18:21;;;;;;;5.38;2.05;;;;;;;3.26;75.22;98161.63;5094472;28;20132;-64
2021/03/14 05:20:48;;;;;;;6.15;2.58;;;;;;;3.23;75.31;98166.22;5094504;28;20068;-65
2021/03/14 05:23:16;;;;;;;5.93;2.25;;;;;;;3.22;75.29;98159.38;5094623;28;20075;-66
2021/03/14 05:25:44;;;;;;;5.72;2.90;;;;;;;3.24;75.19;98164.41;5094017;28;20051;-65
2021/03/14 05:28:13;;;;;;;5.10;2.83;;;;;;;3.16;75.29;98164.41;5094531;28;20052;-65
2021/03/14 05:30:40;;;;;;;5.90;3.45;;;;;;;3.15;75.66;98162.78;5094347;28;20126;-66
2021/03/14 05:33:10;;;;;;;7.35;3.70;;;;;;;3.08;75.80;98172.22;5094466;28;20044;-65
2021/03/14 05:35:38;;;;;;;5.70;4.05;;;;;;;3.14;75.90;98180.25;5093965;28;20568;-66
2021/03/14 05:38:05;;;;;;;7.28;4.30;;;;;;;3.13;76.05;98173.38;5094126;28;20051;-65
2021/03/14 05:40:32;;;;;;;8.45;4.45;;;;;;;3.12;76.05;98179.56;5092718;28;20486;-65
2021/03/14 05:42:59;;;;;;;7.07;4.60;;;;;;;3.10;76.10;98175.47;5094115;28;20050;-65
2021/03/14 05:45:27;;;;;;;9.60;4.97;;;;;;;3.12;75.97;98179.56;5093956;28;20691;-65
2021/03/14 05:47:54;;;;;;;10.20;5.68;;;;;;;3.17;75.99;98171.25;5093962;28;20044;-65
2021/03/14 05:50:23;;;;;;;7.28;4.82;;;;;;;3.24;75.71;98174.88;5093897;28;20109;-65
2021/03/14 05:52:51;;;;;;;9.57;5.28;;;;;;;3.24;75.50;98180.09;5093934;28;20044;-66
2021/03/14 05:55:20;;;;;;;8.55;5.43;;;;;;;3.19;75.28;98187.59;5092453;28;20051;-66
2021/03/14 05:57:48;;;;;;;9.15;5.10;;;;;;;3.26;75.30;98187.75;5093755;28;20495;-65
2021/03/14 06:00:24;;;;;;;7.70;5.22;;;;;;;3.32;74.97;98193.16;5093632;28;20037;-65
2021/03/14 06:02:54;;;;;;;10.77;5.55;;;;;;;3.29;74.66;98201.31;5093807;28;20040;-65
2021/03/14 06:05:23;;;;;;;9.68;4.82;;;;;;;3.23;74.55;98204.59;5093537;28;20576;-65
2021/03/14 06:07:50;;;;;;;5.82;4.28;;;;;;;3.18;74.25;98202.47;5093450;28;20068;-66
2021/03/14 06:10:18;;;;;;;10.15;4.40;;;;;;;3.25;74.23;98202.63;5093580;28;20044;-65
2021/03/14 06:12:45;;;;;;;9.32;4.30;;;;;;;3.28;73.67;98214.56;5093638;28;20044;-65
2021/03/14 06:15:14;;;;;;;7.82;4.40;;;;;;;3.36;73.39;98217.16;5093617;28;20047;-66
2021/03/14 06:17:41;;;;;;;7.30;3.70;;;;;;;3.36;72.66;98215.38;5093653;28;20565;-66
2021/03/14 06:20:10;;;;;;;9.32;3.33;;;;;;;3.37;72.46;98211.78;5094040;28;20123;-66
2021/03/14 06:22:41;;;;;;;8.98;4.07;;;;;;;3.39;71.95;98224.69;5093498;28;20730;-65
2021/03/14 06:25:24;;;;;;;10.48;3.88;;;;;;;3.48;71.83;98232.38;5093222;28;20506;-65
2021/03/14 06:27:52;;;;;;;7.40;3.63;;;;;;;3.60;71.84;98235.50;5093219;28;20113;-65
2021/03/14 06:30:26;;;;;;;6.63;3.55;;;;;;;3.64;71.18;98251.69;5093256;28;20109;-65
2021/03/14 06:33:07;;;;;;;7.32;3.70;;;;;;;3.69;70.89;98252.81;5093400;28;20054;-66
2021/03/14 06:35:42;;;;;;;7.63;4.35;;;;;;;3.80;70.94;98264.75;5092380;28;20040;-65
2021/03/14 06:38:20;;;;;;;7.32;4.32;;;;;;;3.94;70.69;98258.06;5093115;28;20089;-66
2021/03/14 06:40:50;;;;;;;7.90;4.65;;;;;;;3.95;70.52;98265.72;5091781;28;20227;-65
2021/03/14 06:43:17;;;;;;;11.15;5.28;;;;;;;3.98;70.44;98264.59;5093176;28;20512;-65
2021/03/14 06:45:44;;;;;;;13.43;5.95;;;;;;;4.02;70.61;98273.75;5092740;28;20048;-64
2021/03/14 06:48:11;;;;;;;9.40;5.72;;;;;;;4.02;70.36;98278.97;5092807;28;20048;-65
2021/03/14 06:50:40;;;;;;;10.15;5.70;;;;;;;4.05;70.24;98277.84;5092722;28;20032;-65
2021/03/14 06:53:16;;;;;;;12.98;6.40;;;;;;;4.09;69.99;98290.44;5092892;28;20135;-65
2021/03/14 06:55:44;;;;;;;12.60;6.47;;;;;;;4.14;69.85;98284.69;5092570;28;20056;-65
2021/03/14 06:58:27;;;;;;;10.85;6.28;;;;;;;4.22;70.06;98298.59;5092599;28;20071;-66
2021/03/14 07:01:11;;;;;;;9.07;5.60;;;;;;;4.32;69.69;98292.38;5092644;28;20120;-66
2021/03/14 07:03:40;;;;;;;9.30;5.10;;;;;;;4.36;69.70;98301.53;5092830;28;20063;-65
2021/03/14 07:06:14;;;;;;;11.60;5.07;;;;;;;4.46;69.04;98299.56;5092573;28;20040;-67
2021/03/14 07:08:41;;;;;;;6.70;4.32;;;;;;;4.49;69.13;98309.72;5092635;28;20040;-66
2021/03/14 07:11:08;;;;;;;8.20;5.05;;;;;;;4.60;69.05;98306.72;5092671;28;20119;-66
2021/03/14 07:13:39;;;;;;;16.80;5.30;;;;;;;4.61;68.83;98312.78;5098188;28;20036;-65
2021/03/14 07:16:06;;;;;;;8.52;4.15;;;;;;;4.60;68.85;98314.56;5110819;28;20040;-66
2021/03/14 07:18:36;;;;;;;10.15;3.83;;;;;;;4.60;68.89;98319.81;5108120;28;20048;-66
2021/03/14 07:21:23;;;;;;;7.78;3.58;;;;;;;4.62;68.55;98317.84;5091363;28;20040;-66
2021/03/14 07:23:50;;;;;;;8.52;2.90;;;;;;;4.47;68.94;98322.94;5092916;28;20048;-66
2021/03/14 07:26:37;;;;;;;6.90;3.10;;;;;;;4.49;69.03;98335.88;5091345;28;20048;-67
2021/03/14 07:29:06;;;;;;;7.47;3.25;;;;;;;4.43;69.24;98336.53;5092254;28;20405;-67
2021/03/14 07:31:35;;;;;;;4.10;2.58;;;;;;;4.46;69.40;98333.59;5092610;28;20040;-66
2021/03/14 07:34:03;;;;;;;5.28;2.47;;;;;;;4.50;69.39;98339.31;5090919;28;20055;-67
2021/03/14 07:36:30;;;;;;;8.68;3.42;;;;;;;4.58;69.45;98350.59;5092144;28;20490;-66
2021/03/14 07:38:58;;;;;;;9.73;3.80;;;;;;;4.62;69.51;98346.66;5090697;28;20044;-67
2021/03/14 07:41:25;;;;;;;7.50;2.92;;;;;;;4.55;69.15;98358.75;5092121;28;20051;-66
2021/03/14 07:43:53;;;;;;;5.93;2.50;;;;;;;4.65;69.14;98369.06;5092195;28;20521;-67
2021/03/14 07:46:24;;;;;;;11.43;4.05;;;;;;;4.74;69.06;98369.88;5090722;28;20044;-66
2021/03/14 07:48:53;;;;;;;4.22;2.67;;;;;;;4.70;68.76;98378.06;5091901;28;20579;-66
2021/03/14 07:51:21;;;;;;;9.20;2.97;;;;;;;4.77;68.50;98380.81;5092355;28;20086;-66
2021/03/14 07:53:49;;;;;;;10.40;3.20;;;;;;;4.83;68.65;98382.78;5092244;28;20058;-66
2021/03/14 07:56:16;;;;;;;8.13;3.30;;;;;;;4.90;68.35;98380.34;5092119;28;20374;-66
2021/03/14 07:58:43;;;;;;;7.15;2.75;;;;;;;4.86;68.17;98392.94;5092108;28;20093;-66
2021/03/14 08:01:25;;;;;;;5.78;2.50;;;;;;;4.86;67.48;98397.38;5092319;28;20044;-66
2021/03/14 08:03:52;;;;;;;8.32;3.10;;;;;;;4.84;67.92;98397.50;5092222;28;20171;-66
2021/03/14 08:06:50;;;;;;;8.05;2.95;;;;;;;4.97;67.69;98402.25;5092109;28;20426;-66
2021/03/14 08:09:40;;;;;;;5.68;3.53;;;;;;;5.05;67.26;98406.66;5091796;28;20044;-65
2021/03/14 08:12:23;;;;;;;10.98;4.15;;;;;;;5.23;67.37;98407.28;5091740;28;20508;-65
2021/03/14 08:14:52;;;;;;;9.23;3.40;;;;;;;5.40;66.95;98421.16;5091802;28;20055;-65
2021/03/14 08:17:24;;;;;;;6.05;2.40;;;;;;;5.38;66.08;98421.28;5091664;28;20040;-65
2021/03/14 08:19:53;;;;;;;5.28;2.30;;;;;;;5.39;66.10;98419.53;5090377;28;20044;-65
2021/03/14 08:22:48;;;;;;;5.75;2.60;;;;;;;5.41;66.04;98425.41;5090560;28;20040;-65
2021/03/14 08:25:24;;;;;;;6.28;2.95;;;;;;;5.42;66.00;98433.09;5090123;28;20547;-65
2021/03/14 08:27:54;;;;;;;7.40;2.65;;;;;;;5.55;65.94;98429.09;5091390;28;20093;-65
2021/03/14 08:30:45;;;;;;;8.38;2.50;;;;;;;5.46;65.22;98428.31;5091562;28;20032;-65
2021/03/14 08:33:33;;;;;;;8.18;2.67;;;;;;;5.42;65.62;98430.47;5091698;28;20124;-65
2021/03/14 08:36:11;;;;;;;10.23;3.40;;;;;;;5.37;65.56;98437.22;5091330;28;20044;-65
2021/03/14 08:38:47;;;;;;;11.68;3.28;;;;;;;5.39;65.49;98436.06;5090317;28;20396;-65
2021/03/14 08:41:40;;;;;;;7.20;2.65;;;;;;;5.38;65.46;98433.59;5090133;28;20040;-65
2021/03/14 08:44:30;;;;;;;10.25;3.00;;;;;;;5.44;65.66;98441.59;5091425;28;20401;-65
2021/03/14 08:47:06;;;;;;;6.65;2.97;;;;;;;5.46;65.56;98441.44;5090051;28;20044;-65
2021/03/14 08:49:44;;;;;;;7.60;2.85;;;;;;;5.25;64.57;98436.75;5091272;28;20043;-65
2021/03/14 08:52:12;;;;;;;10.13;3.35;;;;;;;5.24;65.29;98442.97;5090124;28;20071;-66
2021/03/14 08:54:50;;;;;;;7.85;3.17;;;;;;;5.32;65.22;98442.13;5089977;28;20044;-66
2021/03/14 08:57:21;;;;;;;5.53;2.72;;;;;;;5.34;65.04;98448.84;5089925;28;20650;-65
2021/03/14 08:59:51;;;;;;;7.43;3.30;;;;;;;5.38;64.75;98452.75;5091595;28;20056;-65
2021/03/14 09:02:21;;;;;;;10.10;3.13;;;;;;;5.43;64.78;98454.91;5094916;28;20077;-65
2021/03/14 09:04:50;;;;;;;6.97;2.67;;;;;;;5.43;64.26;98452.28;5093372;28;20047;-65
2021/03/14 09:07:43;;;;;;;6.80;3.10;;;;;;;5.48;64.11;98457.81;5094226;28;20056;-65
2021/03/14 09:10:11;;;;;;;5.05;3.08;;;;;;;5.52;64.36;98453.88;5093366;28;20066;-65
2021/03/14 09:12:58;;;;;;;9.32;2.95;;;;;;;5.65;64.25;98450.72;5093421;28;20089;-67
2021/03/14 09:15:51;;;;;;;8.45;2.78;;;;;;;5.85;64.49;98451.94;5093294;28;20108;-65
2021/03/14 09:18:24;;;;;;;7.13;2.77;;;;;;;5.98;63.94;98458.47;5093393;28;20506;-65
2021/03/14 09:20:58;;;;;;;5.68;2.88;;;;;;;5.97;63.78;98455.03;5093357;28;20070;-65
2021/03/14 09:23:39;;;;;;;12.85;3.08;;;;;;;6.14;63.64;98448.72;5094886;28;20040;-65
2021/03/14 09:26:06;;;;;;;7.78;3.00;;;;;;;6.31;63.39;98443.38;5094543;28;20136;-65
2021/03/14 09:28:43;;;;;;;6.82;2.88;;;;;;;6.32;63.11;98440.56;5093074;28;20039;-65
2021/03/14 09:31:11;;;;;;;9.68;3.47;;;;;;;6.23;63.31;98446.84;5093237;28;20106;-66
2021/03/14 09:33:40;;;;;;;8.77;3.75;;;;;;;6.00;63.95;98452.09;5093294;28;20067;-66
2021/03/14 09:36:15;;;;;;;9.37;3.83;;;;;;;5.99;64.04;98447.81;5093117;28;20040;-66
2021/03/14 09:38:58;;;;;;;9.07;3.85;;;;;;;5.95;64.39;98457.81;5092870;28;20384;-66
2021/03/14 09:41:45;;;;;;;9.75;4.80;;;;;;;6.01;64.54;98458.16;5094023;28;20048;-65
2021/03/14 09:44:32;;;;;;;8.20;3.40;;;;;;;5.90;64.81;98462.75;5094115;28;20101;-65
2021/03/14 09:47:04;;;;;;;5.80;2.90;;;;;;;5.76;64.59;98460.84;5092964;28;20528;-64
2021/03/14 09:50:03;;;;;;;8.52;3.45;;;;;;;5.66;65.27;98470.72;5091118;28;20040;-65
2021/03/14 09:52:35;;;;;;;9.32;3.45;;;;;;;5.70;65.75;98459.69;5092757;28;20048;-64
2021/03/14 09:55:26;;;;;;;9.93;4.88;;;;;;;5.69;66.25;98476.44;5092437;28;20047;-65
2021/03/14 09:57:53;;;;;;;8.00;3.35;;;;;;;5.56;67.04;98476.16;5092777;28;20426;-65
2021/03/14 10:00:25;;;;;;;8.68;3.13;;;;;;;5.42;67.44;98480.28;5092562;28;20047;-63
2021/03/14 10:03:01;;;;;;;6.50;3.50;;;;;;;5.26;68.03;98484.72;5092647;28;20502;-65
2021/03/14 10:06:06;;;;;;;7.20;3.90;;;;;;;4.93;68.94;98485.56;5087760;28;20044;-65
2021/03/14 10:08:42;;;;;;;7.93;3.60;;;;;;;4.72;69.87;98486.06;5092364;28;20044;-66
2021/03/14 10:11:15;;;;;;;6.22;3.63;;;;;;;4.69;70.47;98486.41;5092379;28;20078;-66
2021/03/14 10:13:53;;;;;;;10.85;3.60;;;;;;;4.59;70.36;98487.53;5092531;28;20040;-66
2021/03/14 10:16:24;;;;;;;11.32;4.45;;;;;;;4.47;70.60;98487.84;5092492;28;20498;-67
2021/03/14 10:18:59;;;;;;;8.10;4.13;;;;;;;4.32;71.32;98496.47;5092343;28;20094;-67
2021/03/14 10:21:30;;;;;;;10.00;4.97;;;;;;;4.31;71.65;98495.66;5092492;28;20047;-67
2021/03/14 10:24:19;;;;;;;8.05;4.43;;;;;;;4.29;71.96;98491.59;5092297;28;20052;-69
2021/03/14 10:26:52;;;;;;;14.50;7.97;;;;;;;4.29;72.19;98495.03;5092610;28;20075;-68
2021/03/14 10:29:27;;;;;;;11.25;5.22;;;;;;;4.34;72.16;98497.16;5092711;28;20054;-68
2021/03/14 10:32:03;;;;;;;10.88;7.40;;;;;;;4.42;72.34;98505.03;5092363;28;20048;-68
2021/03/14 10:34:40;;;;;;;11.52;6.13;;;;;;;4.40;72.45;98496.50;5092067;28;20136;-66
2021/03/14 10:37:24;;;;;;;16.40;5.78;;;;;;;4.50;72.43;98497.19;5093425;28;20036;-66
2021/03/14 10:39:58;;;;;;;12.15;5.88;;;;;;;4.43;72.28;98496.19;5092117;28;20058;-67
2021/03/14 10:42:33;;;;;;;12.40;7.20;;;;;;;4.45;72.44;98496.84;5092066;28;20040;-66
2021/03/14 10:45:08;;;;;;;12.98;7.65;;;;;;;4.47;72.50;98505.34;5092009;28;20055;-66
2021/03/14 10:47:36;;;;;;;18.13;9.52;;;;;;;4.46;72.39;98509.78;5091604;28;20052;-66
2021/03/14 10:50:12;;;;;;;11.27;5.10;;;;;;;4.42;72.36;98503.22;5091736;28;20082;-66
2021/03/14 10:52:42;;;;;;;11.25;5.40;;;;;;;4.43;72.38;98501.41;5115545;28;20027;-66
2021/03/14 10:55:30;;;;;;;15.02;6.75;;;;;;;4.45;72.71;98505.53;5115745;28;20059;-66
2021/03/14 10:58:09;;;;;;;9.93;5.65;;;;;;;4.37;72.64;98504.69;5098332;28;20044;-66
2021/03/14 11:00:41;;;;;;;12.13;5.78;;;;;;;4.33;72.61;98506.00;5093292;28;20418;-66
2021/03/14 11:03:29;;;;;;;12.18;5.70;;;;;;;4.44;72.27;98509.09;5093970;28;20104;-68
2021/03/14 11:06:12;;;;;;;19.27;8.13;;;;;;;4.39;72.61;98508.75;5091802;28;20044;-66
2021/03/14 11:08:53;;;;;;;17.30;8.00;;;;;;;4.42;72.59;98510.25;5091625;28;20077;-67
2021/03/14 11:11:37;;;;;;;12.32;5.43;;;;;;;4.40;72.57;98509.59;5091851;28;20067;-67
2021/03/14 11:14:30;;;;;;;10.10;5.78;;;;;;;4.44;72.59;98513.50;5093141;28;20043;-67
2021/03/14 11:17:16;;;;;;;12.68;6.88;;;;;;;4.52;72.58;98521.38;5093101;28;20070;-67
2021/03/14 11:19:52;;;;;;;18.55;8.02;;;;;;;4.59;72.40;98526.81;5091613;28;20098;-68
2021/03/14 11:22:22;;;;;;;8.63;4.78;;;;;;;4.62;72.34;98523.88;5090816;28;20188;-67
2021/03/14 11:24:52;;;;;;;12.68;6.30;;;;;;;4.62;72.43;98526.50;5091061;28;20044;-67
2021/03/14 11:27:22;;;;;;;13.85;6.85;;;;;;;4.76;72.47;98525.84;5091288;28;20131;-67
2021/03/14 11:29:49;;;;;;;6.78;4.18;;;;;;;4.84;72.46;98523.22;5091503;28;20044;-67
2021/03/14 11:32:19;;;;;;;4.82;3.42;;;;;;;5.00;72.14;98526.84;5092890;28;20051;-67
2021/03/14 11:35:06;;;;;;;7.13;4.15;;;;;;;5.09;71.81;98526.66;5092309;28;20135;-67
2021/03/14 11:37:42;;;;;;;9.00;4.18;;;;;;;5.19;71.74;98523.91;5092210;28;20048;-67
2021/03/14 11:40:33;;;;;;;9.65;3.40;;;;;;;5.22;71.43;98513.91;5089126;28;20113;-67
2021/03/14 11:43:20;;;;;;;4.63;3.55;;;;;;;5.10;71.51;98517.84;5092834;28;20536;-67
2021/03/14 11:46:00;;;;;;;6.28;4.50;;;;;;;5.15;71.42;98518.16;5091125;28;20051;-67
2021/03/14 11:48:27;;;;;;;7.00;5.55;;;;;;;5.21;71.68;98514.06;5092037;28;20086;-66
2021/03/14 11:50:58;;;;;;;3.20;2.83;;;;;;;5.29;71.87;98521.91;5091199;28;20044;-67
2021/03/14 11:53:39;;;;;;;4.57;2.60;;;;;;;5.28;71.58;98514.22;5090889;28;20071;-67
2021/03/14 11:56:06;;;;;;;2.70;2.40;;;;;;;5.24;71.68;98518.97;5090950;28;20048;-67
2021/03/14 11:58:48;;;;;;;3.55;2.60;;;;;;;5.35;71.63;98515.22;5090970;28;20040;-67
2021/03/14 12:01:19;;;;;;;4.00;2.20;;;;;;;5.27;71.84;98517.84;5091188;28;20063;-67